Terminal Aerodrome Forecast
Issued by NWS Wichita, KS

Home | Current Version | Previous Version | Graphics & Text | Print | Product List | Glossary On
Versions: 1 2 3 4 5 6 7 8 9 10 11 12 13 14 15 16
000
FTUS43 KICT 261125
TAFICT
TAF
KICT 261125Z 2612/2712 36015G23KT P6SM VCSH OVC015
     FM261300 36017G25KT P6SM VCSH OVC020
     FM261700 34017G25KT P6SM SCT035 BKN150
      TEMPO 2617/2621 BKN035
     FM270000 33012KT P6SM SCT200=

USA.gov is the U.S. government's official web portal to all federal, state and local government web resources and services.